Norlina, North Carolina
Current Conditions -  °F | °C
As of 3:16 PM on Thursday 18 Dec 2014 (Local Time) from KAVC Reporting Station
Overcast Overcast  
Wind Chill: 45°   Ceiling: 11000
Heat Index: 45°   Visibility: 10mi
Dew Point: 25°   Wind: 3mph
Humidity: 46%   Direction: 250°WSW
Pressure: 30.14"   Gusts: NA
Location:  36.45°N, 78.2°W
Report Text: KAVC 182016Z AUTO 25003KT 10SM OVC110 07/M04 A3014 RMK AO2 T00731038
Loading
Personal Weather Stations






























Interactive Weather Map New forecast layout! Learn more

10-Day Weather Forecast

Advertisements
Track Severe Weather on mobile